sensor_id;sensor_type;location;lat;lon;timestamp;P1;durP1;ratioP1;P2;durP2;ratioP2
74335;SDS011;62755;-33.398;-70.572;2023-04-07T00:02:04;17.95;;;3.72;;
74335;SDS011;62755;-33.398;-70.572;2023-04-07T00:04:53;15.45;;;3.30;;
74335;SDS011;62755;-33.398;-70.572;2023-04-07T00:07:44;19.30;;;3.83;;
74335;SDS011;62755;-33.398;-70.572;2023-04-07T00:10:35;21.65;;;3.70;;
74335;SDS011;62755;-33.398;-70.572;2023-04-07T00:13:24;26.65;;;3.33;;
74335;SDS011;62755;-33.398;-70.572;2023-04-07T00:16:14;8.05;;;2.45;;
74335;SDS011;62755;-33.398;-70.572;2023-04-07T00:19:03;21.23;;;3.05;;
74335;SDS011;62755;-33.398;-70.572;2023-04-07T00:21:53;7.82;;;2.60;;
74335;SDS011;62755;-33.398;-70.572;2023-04-07T00:24:42;15.45;;;2.83;;
74335;SDS011;62755;-33.398;-70.572;2023-04-07T00:27:33;14.25;;;3.63;;
74335;SDS011;62755;-33.398;-70.572;2023-04-07T00:30:23;12.00;;;3.72;;
74335;SDS011;62755;-33.398;-70.572;2023-04-07T00:33:12;21.95;;;4.05;;
74335;SDS011;62755;-33.398;-70.572;2023-04-07T00:36:02;15.00;;;3.42;;
74335;SDS011;62755;-33.398;-70.572;2023-04-07T00:38:52;15.10;;;3.72;;
74335;SDS011;62755;-33.398;-70.572;2023-04-07T00:41:41;17.27;;;3.85;;
74335;SDS011;62755;-33.398;-70.572;2023-04-07T00:44:32;20.05;;;5.00;;
74335;SDS011;62755;-33.398;-70.572;2023-04-07T00:47:22;21.67;;;8.70;;
74335;SDS011;62755;-33.398;-70.572;2023-04-07T00:50:12;21.02;;;4.50;;
74335;SDS011;62755;-33.398;-70.572;2023-04-07T00:53:01;22.92;;;6.88;;
74335;SDS011;62755;-33.398;-70.572;2023-04-07T00:55:51;27.25;;;5.25;;
74335;SDS011;62755;-33.398;-70.572;2023-04-07T00:58:41;30.88;;;5.93;;
74335;SDS011;62755;-33.398;-70.572;2023-04-07T01:01:34;24.98;;;4.38;;
74335;SDS011;62755;-33.398;-70.572;2023-04-07T01:04:32;21.92;;;4.80;;
74335;SDS011;62755;-33.398;-70.572;2023-04-07T01:07:31;24.27;;;5.50;;
74335;SDS011;62755;-33.398;-70.572;2023-04-07T01:10:27;41.88;;;5.80;;
74335;SDS011;62755;-33.398;-70.572;2023-04-07T01:13:25;27.02;;;5.60;;
74335;SDS011;62755;-33.398;-70.572;2023-04-07T01:16:21;19.98;;;5.75;;
74335;SDS011;62755;-33.398;-70.572;2023-04-07T01:19:21;17.70;;;4.82;;
74335;SDS011;62755;-33.398;-70.572;2023-04-07T01:22:20;24.67;;;5.32;;
74335;SDS011;62755;-33.398;-70.572;2023-04-07T01:25:20;22.00;;;5.70;;
74335;SDS011;62755;-33.398;-70.572;2023-04-07T01:28:27;21.83;;;5.60;;
74335;SDS011;62755;-33.398;-70.572;2023-04-07T01:31:38;25.53;;;6.13;;
74335;SDS011;62755;-33.398;-70.572;2023-04-07T01:34:29;26.35;;;8.15;;
74335;SDS011;62755;-33.398;-70.572;2023-04-07T01:37:20;29.13;;;6.18;;
74335;SDS011;62755;-33.398;-70.572;2023-04-07T01:40:10;18.05;;;5.65;;
74335;SDS011;62755;-33.398;-70.572;2023-04-07T01:43:00;19.48;;;4.65;;
74335;SDS011;62755;-33.398;-70.572;2023-04-07T01:45:50;22.42;;;4.60;;
74335;SDS011;62755;-33.398;-70.572;2023-04-07T01:48:43;27.30;;;5.97;;
74335;SDS011;62755;-33.398;-70.572;2023-04-07T01:51:33;27.27;;;5.05;;
74335;SDS011;62755;-33.398;-70.572;2023-04-07T01:54:23;25.10;;;5.03;;
74335;SDS011;62755;-33.398;-70.572;2023-04-07T01:57:13;22.60;;;4.80;;
74335;SDS011;62755;-33.398;-70.572;2023-04-07T02:00:02;18.42;;;5.65;;
74335;SDS011;62755;-33.398;-70.572;2023-04-07T02:02:54;22.45;;;5.38;;
74335;SDS011;62755;-33.398;-70.572;2023-04-07T02:05:54;19.35;;;5.93;;
74335;SDS011;62755;-33.398;-70.572;2023-04-07T02:08:45;23.40;;;5.57;;
74335;SDS011;62755;-33.398;-70.572;2023-04-07T02:11:39;28.42;;;7.38;;
74335;SDS011;62755;-33.398;-70.572;2023-04-07T02:14:31;30.63;;;5.90;;
74335;SDS011;62755;-33.398;-70.572;2023-04-07T02:17:21;18.67;;;5.85;;
74335;SDS011;62755;-33.398;-70.572;2023-04-07T02:20:12;25.10;;;7.15;;
74335;SDS011;62755;-33.398;-70.572;2023-04-07T02:23:05;28.95;;;6.80;;
74335;SDS011;62755;-33.398;-70.572;2023-04-07T02:25:56;27.42;;;5.85;;
74335;SDS011;62755;-33.398;-70.572;2023-04-07T02:28:45;19.35;;;4.93;;
74335;SDS011;62755;-33.398;-70.572;2023-04-07T02:31:35;27.50;;;5.38;;
74335;SDS011;62755;-33.398;-70.572;2023-04-07T02:34:24;24.77;;;4.93;;
74335;SDS011;62755;-33.398;-70.572;2023-04-07T02:37:14;16.90;;;5.38;;
74335;SDS011;62755;-33.398;-70.572;2023-04-07T02:40:07;21.60;;;4.28;;
74335;SDS011;62755;-33.398;-70.572;2023-04-07T02:42:56;10.90;;;4.53;;
74335;SDS011;62755;-33.398;-70.572;2023-04-07T02:45:48;19.85;;;4.68;;
74335;SDS011;62755;-33.398;-70.572;2023-04-07T02:48:37;21.80;;;5.13;;
74335;SDS011;62755;-33.398;-70.572;2023-04-07T02:51:27;24.05;;;4.65;;
74335;SDS011;62755;-33.398;-70.572;2023-04-07T02:54:16;22.25;;;7.40;;
74335;SDS011;62755;-33.398;-70.572;2023-04-07T02:57:07;13.70;;;3.95;;
74335;SDS011;62755;-33.398;-70.572;2023-04-07T02:59:58;22.48;;;4.85;;
74335;SDS011;62755;-33.398;-70.572;2023-04-07T03:02:48;16.33;;;4.25;;
74335;SDS011;62755;-33.398;-70.572;2023-04-07T03:05:37;14.48;;;3.53;;
74335;SDS011;62755;-33.398;-70.572;2023-04-07T03:08:27;23.23;;;4.60;;
74335;SDS011;62755;-33.398;-70.572;2023-04-07T03:11:16;20.33;;;4.15;;
74335;SDS011;62755;-33.398;-70.572;2023-04-07T03:14:08;21.05;;;8.10;;
74335;SDS011;62755;-33.398;-70.572;2023-04-07T03:16:57;21.42;;;4.55;;
74335;SDS011;62755;-33.398;-70.572;2023-04-07T03:19:47;20.95;;;3.92;;
74335;SDS011;62755;-33.398;-70.572;2023-04-07T03:22:36;19.90;;;4.60;;
74335;SDS011;62755;-33.398;-70.572;2023-04-07T03:25:26;13.90;;;3.70;;
74335;SDS011;62755;-33.398;-70.572;2023-04-07T03:28:15;19.60;;;3.88;;
74335;SDS011;62755;-33.398;-70.572;2023-04-07T03:31:06;13.45;;;3.30;;
74335;SDS011;62755;-33.398;-70.572;2023-04-07T03:33:56;28.40;;;3.85;;
74335;SDS011;62755;-33.398;-70.572;2023-04-07T03:36:45;37.05;;;3.90;;
74335;SDS011;62755;-33.398;-70.572;2023-04-07T03:39:35;15.68;;;3.42;;
74335;SDS011;62755;-33.398;-70.572;2023-04-07T03:42:25;22.75;;;3.60;;
74335;SDS011;62755;-33.398;-70.572;2023-04-07T03:45:15;21.88;;;4.13;;
74335;SDS011;62755;-33.398;-70.572;2023-04-07T03:48:06;13.05;;;2.97;;
74335;SDS011;62755;-33.398;-70.572;2023-04-07T03:50:56;23.70;;;4.40;;
74335;SDS011;62755;-33.398;-70.572;2023-04-07T03:53:46;11.73;;;3.33;;
74335;SDS011;62755;-33.398;-70.572;2023-04-07T03:56:36;14.98;;;3.35;;
74335;SDS011;62755;-33.398;-70.572;2023-04-07T03:59:25;19.23;;;3.55;;
74335;SDS011;62755;-33.398;-70.572;2023-04-07T04:02:14;15.63;;;3.00;;
74335;SDS011;62755;-33.398;-70.572;2023-04-07T04:05:06;17.08;;;3.67;;
74335;SDS011;62755;-33.398;-70.572;2023-04-07T04:07:56;22.08;;;4.47;;
74335;SDS011;62755;-33.398;-70.572;2023-04-07T04:10:45;21.83;;;4.22;;
74335;SDS011;62755;-33.398;-70.572;2023-04-07T04:13:35;16.23;;;4.00;;
74335;SDS011;62755;-33.398;-70.572;2023-04-07T04:16:24;24.25;;;5.38;;
74335;SDS011;62755;-33.398;-70.572;2023-04-07T04:19:14;15.02;;;4.05;;
74335;SDS011;62755;-33.398;-70.572;2023-04-07T04:22:05;24.48;;;5.13;;
74335;SDS011;62755;-33.398;-70.572;2023-04-07T04:24:54;18.95;;;4.93;;
74335;SDS011;62755;-33.398;-70.572;2023-04-07T04:27:44;17.85;;;5.63;;
74335;SDS011;62755;-33.398;-70.572;2023-04-07T04:30:33;17.02;;;4.85;;
74335;SDS011;62755;-33.398;-70.572;2023-04-07T04:33:23;19.67;;;4.80;;
74335;SDS011;62755;-33.398;-70.572;2023-04-07T04:36:12;25.27;;;4.90;;
74335;SDS011;62755;-33.398;-70.572;2023-04-07T04:39:04;14.32;;;4.80;;
74335;SDS011;62755;-33.398;-70.572;2023-04-07T04:41:53;13.75;;;4.25;;
74335;SDS011;62755;-33.398;-70.572;2023-04-07T04:44:43;24.15;;;4.57;;
74335;SDS011;62755;-33.398;-70.572;2023-04-07T04:47:33;23.35;;;4.30;;
74335;SDS011;62755;-33.398;-70.572;2023-04-07T04:50:23;30.77;;;5.30;;
74335;SDS011;62755;-33.398;-70.572;2023-04-07T04:53:14;13.90;;;3.95;;
74335;SDS011;62755;-33.398;-70.572;2023-04-07T04:56:05;23.38;;;4.40;;
74335;SDS011;62755;-33.398;-70.572;2023-04-07T04:58:55;17.13;;;3.47;;
74335;SDS011;62755;-33.398;-70.572;2023-04-07T05:01:44;14.68;;;4.00;;
74335;SDS011;62755;-33.398;-70.572;2023-04-07T05:04:34;24.42;;;4.43;;
74335;SDS011;62755;-33.398;-70.572;2023-04-07T05:07:24;15.80;;;4.53;;
74335;SDS011;62755;-33.398;-70.572;2023-04-07T05:10:13;17.00;;;4.57;;
74335;SDS011;62755;-33.398;-70.572;2023-04-07T05:13:05;15.88;;;4.40;;
74335;SDS011;62755;-33.398;-70.572;2023-04-07T05:15:54;14.20;;;3.75;;
74335;SDS011;62755;-33.398;-70.572;2023-04-07T05:18:44;17.55;;;3.90;;
74335;SDS011;62755;-33.398;-70.572;2023-04-07T05:21:33;21.55;;;3.78;;
74335;SDS011;62755;-33.398;-70.572;2023-04-07T05:24:23;14.90;;;4.25;;
74335;SDS011;62755;-33.398;-70.572;2023-04-07T05:27:14;9.77;;;3.67;;
74335;SDS011;62755;-33.398;-70.572;2023-04-07T05:30:06;14.23;;;3.83;;
74335;SDS011;62755;-33.398;-70.572;2023-04-07T05:32:56;15.75;;;3.85;;
74335;SDS011;62755;-33.398;-70.572;2023-04-07T05:35:45;16.85;;;3.47;;
74335;SDS011;62755;-33.398;-70.572;2023-04-07T05:38:35;18.95;;;3.60;;
74335;SDS011;62755;-33.398;-70.572;2023-04-07T05:41:24;17.75;;;4.60;;
74335;SDS011;62755;-33.398;-70.572;2023-04-07T05:44:14;19.05;;;3.92;;
74335;SDS011;62755;-33.398;-70.572;2023-04-07T05:47:05;18.70;;;4.70;;
74335;SDS011;62755;-33.398;-70.572;2023-04-07T05:49:56;18.70;;;6.07;;
74335;SDS011;62755;-33.398;-70.572;2023-04-07T05:52:45;18.98;;;5.70;;
74335;SDS011;62755;-33.398;-70.572;2023-04-07T05:55:35;11.27;;;3.33;;
74335;SDS011;62755;-33.398;-70.572;2023-04-07T05:58:24;16.17;;;3.10;;
74335;SDS011;62755;-33.398;-70.572;2023-04-07T06:01:14;21.52;;;4.20;;
74335;SDS011;62755;-33.398;-70.572;2023-04-07T06:04:06;13.02;;;3.70;;
74335;SDS011;62755;-33.398;-70.572;2023-04-07T06:06:55;18.25;;;4.15;;
74335;SDS011;62755;-33.398;-70.572;2023-04-07T06:09:45;13.98;;;3.92;;
74335;SDS011;62755;-33.398;-70.572;2023-04-07T06:12:34;15.55;;;4.45;;
74335;SDS011;62755;-33.398;-70.572;2023-04-07T06:15:23;15.88;;;4.25;;
74335;SDS011;62755;-33.398;-70.572;2023-04-07T06:18:13;13.02;;;3.80;;
74335;SDS011;62755;-33.398;-70.572;2023-04-07T06:21:04;17.85;;;4.30;;
74335;SDS011;62755;-33.398;-70.572;2023-04-07T06:23:54;18.38;;;4.20;;
74335;SDS011;62755;-33.398;-70.572;2023-04-07T06:26:43;11.80;;;3.60;;
74335;SDS011;62755;-33.398;-70.572;2023-04-07T06:29:33;13.88;;;3.85;;
74335;SDS011;62755;-33.398;-70.572;2023-04-07T06:32:23;14.95;;;3.65;;
74335;SDS011;62755;-33.398;-70.572;2023-04-07T06:35:13;16.67;;;4.18;;
74335;SDS011;62755;-33.398;-70.572;2023-04-07T06:38:04;16.40;;;3.65;;
74335;SDS011;62755;-33.398;-70.572;2023-04-07T06:40:54;22.23;;;4.00;;
74335;SDS011;62755;-33.398;-70.572;2023-04-07T06:43:43;13.05;;;4.07;;
74335;SDS011;62755;-33.398;-70.572;2023-04-07T06:46:33;16.85;;;4.15;;
74335;SDS011;62755;-33.398;-70.572;2023-04-07T06:49:23;19.63;;;4.00;;
74335;SDS011;62755;-33.398;-70.572;2023-04-07T06:52:12;19.98;;;4.03;;
74335;SDS011;62755;-33.398;-70.572;2023-04-07T06:55:05;22.42;;;4.32;;
74335;SDS011;62755;-33.398;-70.572;2023-04-07T06:57:56;16.27;;;3.60;;
74335;SDS011;62755;-33.398;-70.572;2023-04-07T07:00:45;12.10;;;3.97;;
74335;SDS011;62755;-33.398;-70.572;2023-04-07T07:03:34;16.10;;;4.00;;
74335;SDS011;62755;-33.398;-70.572;2023-04-07T07:06:24;14.52;;;4.10;;
74335;SDS011;62755;-33.398;-70.572;2023-04-07T07:09:13;11.02;;;4.20;;
74335;SDS011;62755;-33.398;-70.572;2023-04-07T07:12:06;13.88;;;3.58;;
74335;SDS011;62755;-33.398;-70.572;2023-04-07T07:14:55;18.35;;;3.53;;
74335;SDS011;62755;-33.398;-70.572;2023-04-07T07:17:45;12.88;;;3.47;;
74335;SDS011;62755;-33.398;-70.572;2023-04-07T07:20:34;20.50;;;3.70;;
74335;SDS011;62755;-33.398;-70.572;2023-04-07T07:23:24;17.55;;;3.97;;
74335;SDS011;62755;-33.398;-70.572;2023-04-07T07:26:13;12.88;;;4.15;;
74335;SDS011;62755;-33.398;-70.572;2023-04-07T07:29:04;17.95;;;4.07;;
74335;SDS011;62755;-33.398;-70.572;2023-04-07T07:31:54;14.25;;;4.43;;
74335;SDS011;62755;-33.398;-70.572;2023-04-07T07:34:43;15.00;;;3.63;;
74335;SDS011;62755;-33.398;-70.572;2023-04-07T07:37:33;14.30;;;3.90;;
74335;SDS011;62755;-33.398;-70.572;2023-04-07T07:40:22;16.25;;;3.95;;
74335;SDS011;62755;-33.398;-70.572;2023-04-07T07:43:12;17.85;;;3.80;;
74335;SDS011;62755;-33.398;-70.572;2023-04-07T07:46:04;15.68;;;3.63;;
74335;SDS011;62755;-33.398;-70.572;2023-04-07T07:48:53;11.43;;;3.95;;
74335;SDS011;62755;-33.398;-70.572;2023-04-07T07:51:43;22.85;;;4.30;;
74335;SDS011;62755;-33.398;-70.572;2023-04-07T07:54:32;12.30;;;4.88;;
74335;SDS011;62755;-33.398;-70.572;2023-04-07T07:57:22;18.45;;;4.50;;
74335;SDS011;62755;-33.398;-70.572;2023-04-07T08:00:11;15.65;;;4.68;;
74335;SDS011;62755;-33.398;-70.572;2023-04-07T08:03:03;17.67;;;4.00;;
74335;SDS011;62755;-33.398;-70.572;2023-04-07T08:05:53;17.70;;;4.28;;
74335;SDS011;62755;-33.398;-70.572;2023-04-07T08:08:43;15.20;;;3.40;;
74335;SDS011;62755;-33.398;-70.572;2023-04-07T08:11:32;14.57;;;3.70;;
74335;SDS011;62755;-33.398;-70.572;2023-04-07T08:14:22;11.73;;;3.67;;
74335;SDS011;62755;-33.398;-70.572;2023-04-07T08:17:11;11.50;;;3.42;;
74335;SDS011;62755;-33.398;-70.572;2023-04-07T08:20:02;17.27;;;4.65;;
74335;SDS011;62755;-33.398;-70.572;2023-04-07T08:22:52;13.55;;;4.57;;
74335;SDS011;62755;-33.398;-70.572;2023-04-07T08:25:42;30.58;;;13.23;;
74335;SDS011;62755;-33.398;-70.572;2023-04-07T08:28:31;15.43;;;4.80;;
74335;SDS011;62755;-33.398;-70.572;2023-04-07T08:31:21;14.95;;;4.15;;
74335;SDS011;62755;-33.398;-70.572;2023-04-07T08:34:10;12.65;;;4.03;;
74335;SDS011;62755;-33.398;-70.572;2023-04-07T08:37:01;13.05;;;3.97;;
74335;SDS011;62755;-33.398;-70.572;2023-04-07T08:39:51;16.20;;;3.97;;
74335;SDS011;62755;-33.398;-70.572;2023-04-07T08:42:40;17.63;;;3.42;;
74335;SDS011;62755;-33.398;-70.572;2023-04-07T08:45:33;19.38;;;3.83;;
74335;SDS011;62755;-33.398;-70.572;2023-04-07T08:48:27;16.42;;;3.63;;
74335;SDS011;62755;-33.398;-70.572;2023-04-07T08:51:21;12.18;;;3.40;;
74335;SDS011;62755;-33.398;-70.572;2023-04-07T08:54:17;12.80;;;3.43;;
74335;SDS011;62755;-33.398;-70.572;2023-04-07T08:57:07;11.13;;;3.78;;
74335;SDS011;62755;-33.398;-70.572;2023-04-07T08:59:57;17.65;;;3.67;;
74335;SDS011;62755;-33.398;-70.572;2023-04-07T09:02:50;13.10;;;3.50;;
74335;SDS011;62755;-33.398;-70.572;2023-04-07T09:05:40;13.68;;;3.72;;
74335;SDS011;62755;-33.398;-70.572;2023-04-07T09:08:32;11.90;;;3.33;;
74335;SDS011;62755;-33.398;-70.572;2023-04-07T09:11:24;12.80;;;3.58;;
74335;SDS011;62755;-33.398;-70.572;2023-04-07T09:14:14;14.57;;;3.33;;
74335;SDS011;62755;-33.398;-70.572;2023-04-07T09:17:05;11.25;;;3.75;;
74335;SDS011;62755;-33.398;-70.572;2023-04-07T09:19:55;13.57;;;3.50;;
74335;SDS011;62755;-33.398;-70.572;2023-04-07T09:22:45;18.75;;;3.72;;
74335;SDS011;62755;-33.398;-70.572;2023-04-07T09:25:35;13.70;;;3.47;;
74335;SDS011;62755;-33.398;-70.572;2023-04-07T09:28:30;13.80;;;3.42;;
74335;SDS011;62755;-33.398;-70.572;2023-04-07T09:31:42;20.25;;;4.28;;
74335;SDS011;62755;-33.398;-70.572;2023-04-07T09:34:33;13.00;;;3.70;;
74335;SDS011;62755;-33.398;-70.572;2023-04-07T09:37:23;19.08;;;3.90;;
74335;SDS011;62755;-33.398;-70.572;2023-04-07T09:40:12;15.82;;;4.05;;
74335;SDS011;62755;-33.398;-70.572;2023-04-07T09:43:14;17.90;;;3.67;;
74335;SDS011;62755;-33.398;-70.572;2023-04-07T09:46:13;22.15;;;10.30;;
74335;SDS011;62755;-33.398;-70.572;2023-04-07T09:49:03;15.68;;;4.97;;
74335;SDS011;62755;-33.398;-70.572;2023-04-07T09:51:53;8.80;;;4.18;;
74335;SDS011;62755;-33.398;-70.572;2023-04-07T09:54:44;14.90;;;4.32;;
74335;SDS011;62755;-33.398;-70.572;2023-04-07T09:57:35;18.08;;;3.85;;
74335;SDS011;62755;-33.398;-70.572;2023-04-07T10:00:26;11.15;;;3.72;;
74335;SDS011;62755;-33.398;-70.572;2023-04-07T10:03:17;14.10;;;4.07;;
74335;SDS011;62755;-33.398;-70.572;2023-04-07T10:06:07;9.75;;;3.63;;
74335;SDS011;62755;-33.398;-70.572;2023-04-07T10:08:56;9.48;;;3.00;;
74335;SDS011;62755;-33.398;-70.572;2023-04-07T10:11:46;10.13;;;3.00;;
74335;SDS011;62755;-33.398;-70.572;2023-04-07T10:14:37;11.13;;;3.33;;
74335;SDS011;62755;-33.398;-70.572;2023-04-07T10:17:31;10.18;;;3.53;;
74335;SDS011;62755;-33.398;-70.572;2023-04-07T10:20:24;18.45;;;3.63;;
74335;SDS011;62755;-33.398;-70.572;2023-04-07T10:23:18;15.88;;;3.67;;
74335;SDS011;62755;-33.398;-70.572;2023-04-07T10:26:12;16.85;;;5.00;;
74335;SDS011;62755;-33.398;-70.572;2023-04-07T10:29:07;13.73;;;3.40;;
74335;SDS011;62755;-33.398;-70.572;2023-04-07T10:31:58;16.42;;;3.60;;
74335;SDS011;62755;-33.398;-70.572;2023-04-07T10:34:56;15.55;;;3.70;;
74335;SDS011;62755;-33.398;-70.572;2023-04-07T10:41:15;13.90;;;3.28;;
74335;SDS011;62755;-33.398;-70.572;2023-04-07T10:47:35;19.17;;;3.50;;
74335;SDS011;62755;-33.398;-70.572;2023-04-07T10:51:11;18.58;;;3.63;;
74335;SDS011;62755;-33.398;-70.572;2023-04-07T10:57:11;22.80;;;3.75;;
74335;SDS011;62755;-33.398;-70.572;2023-04-07T11:00:14;11.75;;;4.25;;
74335;SDS011;62755;-33.398;-70.572;2023-04-07T11:03:09;18.33;;;5.03;;
74335;SDS011;62755;-33.398;-70.572;2023-04-07T11:06:03;18.48;;;4.05;;
74335;SDS011;62755;-33.398;-70.572;2023-04-07T11:08:53;15.27;;;3.92;;
74335;SDS011;62755;-33.398;-70.572;2023-04-07T11:11:44;17.88;;;4.95;;
74335;SDS011;62755;-33.398;-70.572;2023-04-07T11:14:33;13.55;;;4.38;;
74335;SDS011;62755;-33.398;-70.572;2023-04-07T11:17:25;15.23;;;4.32;;
74335;SDS011;62755;-33.398;-70.572;2023-04-07T11:20:15;14.35;;;3.50;;
74335;SDS011;62755;-33.398;-70.572;2023-04-07T11:23:04;28.17;;;6.25;;
74335;SDS011;62755;-33.398;-70.572;2023-04-07T11:25:58;13.95;;;4.28;;
74335;SDS011;62755;-33.398;-70.572;2023-04-07T11:28:51;14.95;;;3.88;;
74335;SDS011;62755;-33.398;-70.572;2023-04-07T11:31:42;23.35;;;3.58;;
74335;SDS011;62755;-33.398;-70.572;2023-04-07T11:34:35;14.55;;;3.20;;
74335;SDS011;62755;-33.398;-70.572;2023-04-07T11:37:25;12.18;;;3.50;;
74335;SDS011;62755;-33.398;-70.572;2023-04-07T11:43:23;15.02;;;4.10;;
74335;SDS011;62755;-33.398;-70.572;2023-04-07T11:46:15;9.68;;;3.10;;
74335;SDS011;62755;-33.398;-70.572;2023-04-07T11:49:09;15.30;;;3.50;;
74335;SDS011;62755;-33.398;-70.572;2023-04-07T11:52:00;12.20;;;3.50;;
74335;SDS011;62755;-33.398;-70.572;2023-04-07T11:54:50;11.43;;;3.08;;
74335;SDS011;62755;-33.398;-70.572;2023-04-07T11:57:40;15.18;;;3.38;;
74335;SDS011;62755;-33.398;-70.572;2023-04-07T12:00:29;22.45;;;3.53;;
74335;SDS011;62755;-33.398;-70.572;2023-04-07T12:03:20;17.42;;;3.47;;
74335;SDS011;62755;-33.398;-70.572;2023-04-07T12:06:10;18.50;;;3.58;;
74335;SDS011;62755;-33.398;-70.572;2023-04-07T12:08:59;15.13;;;3.50;;
74335;SDS011;62755;-33.398;-70.572;2023-04-07T12:11:50;10.73;;;2.95;;
74335;SDS011;62755;-33.398;-70.572;2023-04-07T12:14:39;13.82;;;3.53;;
74335;SDS011;62755;-33.398;-70.572;2023-04-07T12:17:28;15.48;;;3.42;;
74335;SDS011;62755;-33.398;-70.572;2023-04-07T12:20:19;13.88;;;3.28;;
74335;SDS011;62755;-33.398;-70.572;2023-04-07T12:23:09;17.33;;;3.28;;
74335;SDS011;62755;-33.398;-70.572;2023-04-07T12:25:58;12.90;;;3.42;;
74335;SDS011;62755;-33.398;-70.572;2023-04-07T12:28:48;13.73;;;3.20;;
74335;SDS011;62755;-33.398;-70.572;2023-04-07T12:31:37;20.67;;;4.00;;
74335;SDS011;62755;-33.398;-70.572;2023-04-07T12:34:27;8.57;;;2.63;;
74335;SDS011;62755;-33.398;-70.572;2023-04-07T12:37:18;12.32;;;2.95;;
74335;SDS011;62755;-33.398;-70.572;2023-04-07T12:40:08;15.43;;;3.70;;
74335;SDS011;62755;-33.398;-70.572;2023-04-07T12:42:58;12.65;;;3.10;;
74335;SDS011;62755;-33.398;-70.572;2023-04-07T12:45:47;16.88;;;2.90;;
74335;SDS011;62755;-33.398;-70.572;2023-04-07T12:48:37;16.90;;;3.83;;
74335;SDS011;62755;-33.398;-70.572;2023-04-07T12:51:27;18.13;;;3.70;;
74335;SDS011;62755;-33.398;-70.572;2023-04-07T12:54:20;15.57;;;3.53;;
74335;SDS011;62755;-33.398;-70.572;2023-04-07T12:57:09;20.98;;;3.50;;
74335;SDS011;62755;-33.398;-70.572;2023-04-07T12:59:58;20.90;;;3.38;;
74335;SDS011;62755;-33.398;-70.572;2023-04-07T13:02:48;19.08;;;3.15;;
74335;SDS011;62755;-33.398;-70.572;2023-04-07T13:05:37;11.52;;;2.67;;
74335;SDS011;62755;-33.398;-70.572;2023-04-07T13:08:26;13.05;;;3.25;;
74335;SDS011;62755;-33.398;-70.572;2023-04-07T13:11:18;17.33;;;3.25;;
74335;SDS011;62755;-33.398;-70.572;2023-04-07T13:14:07;16.67;;;3.63;;
74335;SDS011;62755;-33.398;-70.572;2023-04-07T13:16:57;14.77;;;4.20;;
74335;SDS011;62755;-33.398;-70.572;2023-04-07T13:19:46;15.85;;;3.83;;
74335;SDS011;62755;-33.398;-70.572;2023-04-07T13:22:36;14.27;;;3.83;;
74335;SDS011;62755;-33.398;-70.572;2023-04-07T13:25:25;16.25;;;3.60;;
74335;SDS011;62755;-33.398;-70.572;2023-04-07T13:28:17;18.30;;;3.70;;
74335;SDS011;62755;-33.398;-70.572;2023-04-07T13:31:06;20.33;;;3.25;;
74335;SDS011;62755;-33.398;-70.572;2023-04-07T13:33:57;18.55;;;4.05;;
74335;SDS011;62755;-33.398;-70.572;2023-04-07T13:36:47;12.98;;;3.33;;
74335;SDS011;62755;-33.398;-70.572;2023-04-07T13:39:36;17.00;;;3.55;;
74335;SDS011;62755;-33.398;-70.572;2023-04-07T13:42:25;16.45;;;3.63;;
74335;SDS011;62755;-33.398;-70.572;2023-04-07T13:45:17;16.83;;;3.83;;
74335;SDS011;62755;-33.398;-70.572;2023-04-07T13:48:06;14.38;;;3.33;;
74335;SDS011;62755;-33.398;-70.572;2023-04-07T13:50:56;15.85;;;3.50;;
74335;SDS011;62755;-33.398;-70.572;2023-04-07T13:53:45;21.52;;;3.97;;
74335;SDS011;62755;-33.398;-70.572;2023-04-07T13:56:34;17.58;;;3.45;;
74335;SDS011;62755;-33.398;-70.572;2023-04-07T13:59:25;19.98;;;3.38;;
74335;SDS011;62755;-33.398;-70.572;2023-04-07T14:02:16;11.75;;;3.83;;
74335;SDS011;62755;-33.398;-70.572;2023-04-07T14:05:06;14.88;;;3.58;;
74335;SDS011;62755;-33.398;-70.572;2023-04-07T14:07:56;23.33;;;7.75;;
74335;SDS011;62755;-33.398;-70.572;2023-04-07T14:10:45;25.65;;;11.55;;
74335;SDS011;62755;-33.398;-70.572;2023-04-07T14:13:34;42.70;;;21.85;;
74335;SDS011;62755;-33.398;-70.572;2023-04-07T14:16:24;38.35;;;21.15;;
74335;SDS011;62755;-33.398;-70.572;2023-04-07T14:19:15;25.80;;;6.05;;
74335;SDS011;62755;-33.398;-70.572;2023-04-07T14:22:05;15.93;;;5.25;;
74335;SDS011;62755;-33.398;-70.572;2023-04-07T14:24:55;24.80;;;5.47;;
74335;SDS011;62755;-33.398;-70.572;2023-04-07T14:27:44;27.55;;;4.68;;
74335;SDS011;62755;-33.398;-70.572;2023-04-07T14:30:34;14.73;;;6.07;;
74335;SDS011;62755;-33.398;-70.572;2023-04-07T14:33:24;21.50;;;6.65;;
74335;SDS011;62755;-33.398;-70.572;2023-04-07T14:36:15;14.20;;;5.20;;
74335;SDS011;62755;-33.398;-70.572;2023-04-07T14:39:05;24.92;;;6.53;;
74335;SDS011;62755;-33.398;-70.572;2023-04-07T14:41:55;19.35;;;4.90;;
74335;SDS011;62755;-33.398;-70.572;2023-04-07T14:44:45;20.27;;;7.85;;
74335;SDS011;62755;-33.398;-70.572;2023-04-07T14:47:34;27.25;;;8.98;;
74335;SDS011;62755;-33.398;-70.572;2023-04-07T14:50:24;25.33;;;5.28;;
74335;SDS011;62755;-33.398;-70.572;2023-04-07T14:53:15;20.35;;;6.25;;
74335;SDS011;62755;-33.398;-70.572;2023-04-07T14:56:05;24.05;;;5.10;;
74335;SDS011;62755;-33.398;-70.572;2023-04-07T14:58:55;20.20;;;6.93;;
74335;SDS011;62755;-33.398;-70.572;2023-04-07T15:01:46;21.50;;;5.47;;
74335;SDS011;62755;-33.398;-70.572;2023-04-07T15:04:35;25.55;;;4.00;;
74335;SDS011;62755;-33.398;-70.572;2023-04-07T15:07:25;11.23;;;3.92;;
74335;SDS011;62755;-33.398;-70.572;2023-04-07T15:10:16;17.38;;;4.60;;
74335;SDS011;62755;-33.398;-70.572;2023-04-07T15:13:05;16.33;;;4.30;;
74335;SDS011;62755;-33.398;-70.572;2023-04-07T15:15:55;19.98;;;4.07;;
74335;SDS011;62755;-33.398;-70.572;2023-04-07T15:18:44;22.42;;;4.60;;
74335;SDS011;62755;-33.398;-70.572;2023-04-07T15:21:34;18.77;;;4.35;;
74335;SDS011;62755;-33.398;-70.572;2023-04-07T15:24:23;17.90;;;4.50;;
74335;SDS011;62755;-33.398;-70.572;2023-04-07T15:27:14;19.13;;;4.68;;
74335;SDS011;62755;-33.398;-70.572;2023-04-07T15:30:04;17.38;;;4.60;;
74335;SDS011;62755;-33.398;-70.572;2023-04-07T15:32:58;20.65;;;4.30;;
74335;SDS011;62755;-33.398;-70.572;2023-04-07T15:35:49;21.95;;;4.28;;
74335;SDS011;62755;-33.398;-70.572;2023-04-07T15:38:38;16.60;;;4.20;;
74335;SDS011;62755;-33.398;-70.572;2023-04-07T15:41:27;15.32;;;4.57;;
74335;SDS011;62755;-33.398;-70.572;2023-04-07T15:44:19;15.52;;;4.55;;
74335;SDS011;62755;-33.398;-70.572;2023-04-07T15:47:08;15.95;;;4.22;;
74335;SDS011;62755;-33.398;-70.572;2023-04-07T15:49:58;13.90;;;3.92;;
74335;SDS011;62755;-33.398;-70.572;2023-04-07T15:52:47;12.95;;;3.70;;
74335;SDS011;62755;-33.398;-70.572;2023-04-07T15:55:37;10.25;;;4.35;;
74335;SDS011;62755;-33.398;-70.572;2023-04-07T15:58:26;22.20;;;4.35;;
74335;SDS011;62755;-33.398;-70.572;2023-04-07T16:01:18;16.10;;;4.88;;
74335;SDS011;62755;-33.398;-70.572;2023-04-07T16:04:07;15.88;;;5.13;;
74335;SDS011;62755;-33.398;-70.572;2023-04-07T16:06:57;20.63;;;4.97;;
74335;SDS011;62755;-33.398;-70.572;2023-04-07T16:09:46;22.10;;;5.10;;
74335;SDS011;62755;-33.398;-70.572;2023-04-07T16:12:36;15.88;;;5.32;;
74335;SDS011;62755;-33.398;-70.572;2023-04-07T16:15:25;22.98;;;5.20;;
74335;SDS011;62755;-33.398;-70.572;2023-04-07T16:18:16;14.10;;;4.55;;
74335;SDS011;62755;-33.398;-70.572;2023-04-07T16:21:06;17.35;;;5.05;;
74335;SDS011;62755;-33.398;-70.572;2023-04-07T16:23:55;16.38;;;5.72;;